Time;durP1;ratioP1;P1;durP2;ratioP2;P2;SDS_P1;SDS_P2;PMS_P1;PMS_P2;Temp;Humidity;BMP_temperature;BMP_pressure;BME280_temperature;BME280_humidity;BME280_pressure;Samples;Min_cycle;Max_cycle;Signal;HPM_P1;HPM_P2
2022/12/08 00:01:16;;;;;;;18.90;10.83;;;4.20;99.90;;;;;;5073674;28;20216;-81
2022/12/08 00:03:43;;;;;;;19.63;10.73;;;4.20;99.90;;;;;;5069523;28;20298;-81
2022/12/08 00:09:24;;;;;;;15.90;10.70;;;4.20;99.90;;;;;;5089382;28;20220;-82
2022/12/08 00:11:56;;;;;;;19.43;10.67;;;4.10;99.90;;;;;;5081044;28;20213;-81
2022/12/08 00:14:25;;;;;;;16.53;10.63;;;4.00;99.90;;;;;;5075287;28;20209;-81
2022/12/08 00:16:53;;;;;;;15.27;9.67;;;4.00;99.90;;;;;;5077496;28;20278;-83
2022/12/08 00:19:20;;;;;;;17.37;10.00;;;4.00;99.90;;;;;;5058904;28;20195;-81
2022/12/08 00:21:47;;;;;;;16.27;9.80;;;4.00;99.90;;;;;;5059977;28;20194;-81
2022/12/08 00:24:16;;;;;;;15.07;9.90;;;4.00;99.90;;;;;;5058789;28;20294;-81
2022/12/08 00:26:43;;;;;;;13.90;8.87;;;4.00;99.90;;;;;;5058779;28;20238;-81
2022/12/08 00:29:10;;;;;;;18.23;9.57;;;4.00;99.90;;;;;;5060896;28;20198;-81
2022/12/08 00:31:37;;;;;;;15.13;9.13;;;4.00;99.90;;;;;;5075085;28;20204;-81
2022/12/08 00:34:04;;;;;;;17.23;9.67;;;4.00;99.90;;;;;;5090813;28;20818;-81
2022/12/08 00:36:31;;;;;;;17.27;9.37;;;3.90;99.90;;;;;;5075211;28;20210;-81
2022/12/08 00:38:58;;;;;;;20.97;10.33;;;3.80;99.90;;;;;;5067060;28;20217;-80
2022/12/08 00:44:14;;;;;;;17.97;10.00;;;3.70;99.90;;;;;;5076076;28;20311;-81
2022/12/08 00:46:41;;;;;;;18.03;10.07;;;3.60;99.90;;;;;;5078961;28;20252;-81
2022/12/08 00:49:08;;;;;;;17.93;9.90;;;3.50;99.90;;;;;;5075886;28;20631;-81
2022/12/08 00:51:35;;;;;;;17.77;9.37;;;3.50;99.90;;;;;;5071543;28;20260;-81
2022/12/08 00:54:01;;;;;;;16.63;9.40;;;3.50;99.90;;;;;;5075213;28;20212;-81
2022/12/08 00:56:30;;;;;;;18.60;10.13;;;3.50;99.90;;;;;;5079388;28;20222;-81
2022/12/08 00:58:56;;;;;;;18.37;9.03;;;3.40;99.90;;;;;;5064873;28;20195;-81
2022/12/08 01:01:23;;;;;;;16.83;8.50;;;3.40;99.90;;;;;;5058856;28;20248;-81
2022/12/08 01:03:50;;;;;;;20.30;9.23;;;3.30;99.90;;;;;;5063882;28;20212;-80
2022/12/08 01:06:17;;;;;;;17.87;8.60;;;3.30;99.90;;;;;;5070487;28;20227;-80
2022/12/08 01:08:44;;;;;;;16.00;8.20;;;3.30;99.90;;;;;;5070105;28;20228;-81
2022/12/08 01:11:13;;;;;;;14.47;7.83;;;3.30;99.90;;;;;;5079806;28;20274;-81
2022/12/08 01:13:42;;;;;;;16.47;7.97;;;3.30;99.90;;;;;;5075634;28;20199;-81
2022/12/08 01:16:09;;;;;;;16.80;8.80;;;3.40;99.90;;;;;;5077868;28;20213;-81
2022/12/08 01:18:36;;;;;;;14.60;7.47;;;3.40;99.90;;;;;;5071876;28;20349;-81
2022/12/08 01:21:05;;;;;;;12.70;7.37;;;3.40;99.90;;;;;;5080984;28;20198;-81
2022/12/08 01:23:32;;;;;;;13.40;7.87;;;3.40;99.90;;;;;;5070588;28;20281;-81
2022/12/08 01:26:03;;;;;;;13.57;8.10;;;3.40;99.90;;;;;;5059683;28;20279;-81
2022/12/08 01:28:30;;;;;;;16.43;8.00;;;3.40;99.90;;;;;;5074220;28;20186;-80
2022/12/08 01:30:59;;;;;;;12.90;7.03;;;3.40;99.90;;;;;;5060871;28;20293;-81
2022/12/08 01:33:27;;;;;;;18.87;7.90;;;3.50;99.90;;;;;;5067902;28;20282;-81
2022/12/08 01:35:54;;;;;;;15.47;7.27;;;3.50;99.90;;;;;;5068047;28;20609;-81
2022/12/08 01:38:22;;;;;;;14.30;7.60;;;3.60;99.90;;;;;;5071315;28;20229;-81
2022/12/08 01:40:49;;;;;;;14.50;8.63;;;3.60;99.90;;;;;;5081176;28;20267;-81
2022/12/08 01:43:17;;;;;;;15.23;7.60;;;3.70;99.90;;;;;;5074733;28;20643;-80
2022/12/08 01:45:44;;;;;;;16.03;8.10;;;3.70;99.90;;;;;;5065136;28;20947;-81
2022/12/08 01:48:18;;;;;;;15.93;9.40;;;3.80;99.90;;;;;;5059205;28;20266;-81
2022/12/08 01:50:46;;;;;;;19.67;9.50;;;3.70;99.90;;;;;;5059798;28;20290;-80
2022/12/08 01:53:19;;;;;;;20.37;9.27;;;3.70;99.90;;;;;;5067696;28;20205;-81
2022/12/08 01:55:52;;;;;;;17.17;9.67;;;3.70;99.90;;;;;;5074573;28;20203;-80
2022/12/08 01:58:23;;;;;;;18.47;10.17;;;3.70;99.90;;;;;;5074781;28;20205;-81
2022/12/08 02:00:50;;;;;;;16.90;9.73;;;3.70;99.90;;;;;;5068482;28;20274;-81
2022/12/08 02:03:24;;;;;;;15.33;8.60;;;3.70;99.90;;;;;;5080799;28;20205;-80
2022/12/08 02:05:52;;;;;;;15.60;8.83;;;3.70;99.90;;;;;;5067845;28;20206;-80
2022/12/08 02:08:19;;;;;;;15.07;8.43;;;3.70;99.90;;;;;;5064633;28;20299;-81
2022/12/08 02:10:48;;;;;;;13.43;8.33;;;3.70;99.90;;;;;;5061561;28;20270;-80
2022/12/08 02:13:17;;;;;;;20.30;8.03;;;3.70;99.90;;;;;;5068622;28;20190;-81
2022/12/08 02:15:53;;;;;;;17.30;9.03;;;3.60;99.90;;;;;;5072511;28;20269;-80
2022/12/08 02:18:35;;;;;;;16.00;9.10;;;3.60;99.90;;;;;;5082036;28;20574;-80
2022/12/08 02:21:07;;;;;;;15.03;8.30;;;3.60;99.90;;;;;;5064573;28;20302;-81
2022/12/08 02:23:42;;;;;;;15.70;8.10;;;3.60;99.90;;;;;;5069516;28;20198;-81
2022/12/08 02:27:00;;;;;;;15.50;8.30;;;3.50;99.90;;;;;;5071063;28;20224;-81
2022/12/08 02:29:52;;;;;;;15.57;8.40;;;3.50;99.90;;;;;;5070120;28;20203;-80
2022/12/08 02:32:58;;;;;;;15.20;10.17;;;3.40;99.90;;;;;;5075168;28;20233;-80
2022/12/08 02:35:32;;;;;;;18.30;8.73;;;3.40;99.90;;;;;;5064107;28;20215;-80
2022/12/08 02:38:13;;;;;;;17.23;9.10;;;3.50;99.90;;;;;;5070968;28;20238;-80
2022/12/08 02:40:49;;;;;;;19.83;9.90;;;3.50;99.90;;;;;;5061277;28;20286;-81
2022/12/08 02:43:21;;;;;;;16.90;8.70;;;3.60;99.90;;;;;;5072477;28;20212;-81
2022/12/08 02:45:52;;;;;;;19.30;8.87;;;3.70;99.90;;;;;;5078345;28;20278;-81
2022/12/08 02:48:19;;;;;;;17.73;9.23;;;3.60;99.90;;;;;;5067885;28;20227;-80
2022/12/08 02:50:47;;;;;;;18.53;8.90;;;3.60;99.90;;;;;;5081917;28;20206;-81
2022/12/08 02:53:13;;;;;;;18.07;9.13;;;3.70;99.90;;;;;;5076016;28;20229;-80
2022/12/08 02:55:49;;;;;;;17.27;8.60;;;3.60;99.90;;;;;;5070065;28;20286;-81
2022/12/08 02:58:28;;;;;;;15.90;8.33;;;3.60;99.90;;;;;;5074869;28;20281;-81
2022/12/08 03:01:09;;;;;;;24.87;9.73;;;3.60;99.90;;;;;;5074886;28;20207;-80
2022/12/08 03:03:45;;;;;;;20.07;9.17;;;3.60;99.90;;;;;;5074513;28;20206;-81
2022/12/08 03:06:25;;;;;;;15.40;8.70;;;3.60;99.90;;;;;;5091016;28;20277;-80
2022/12/08 03:08:57;;;;;;;17.90;8.47;;;3.60;99.90;;;;;;5075518;28;20207;-80
2022/12/08 03:11:28;;;;;;;15.27;8.37;;;3.50;99.90;;;;;;5078637;28;20214;-81
2022/12/08 03:14:00;;;;;;;16.07;8.67;;;3.50;99.90;;;;;;5069399;28;20205;-81
2022/12/08 03:16:29;;;;;;;16.73;8.80;;;3.50;99.90;;;;;;5060961;28;20223;-81
2022/12/08 03:19:01;;;;;;;15.50;7.77;;;3.50;99.90;;;;;;5067008;28;20673;-80
2022/12/08 03:21:31;;;;;;;16.70;7.83;;;3.60;99.90;;;;;;5070987;28;20205;-81
2022/12/08 03:23:58;;;;;;;14.97;7.77;;;3.50;99.90;;;;;;5070650;28;20199;-80
2022/12/08 03:26:31;;;;;;;17.67;7.80;;;3.40;99.90;;;;;;5071199;28;20287;-81
2022/12/08 03:28:58;;;;;;;16.63;8.60;;;3.40;99.90;;;;;;5068488;28;20203;-80
2022/12/08 03:31:29;;;;;;;17.40;8.63;;;3.40;99.90;;;;;;5066994;28;20389;-80
2022/12/08 03:33:58;;;;;;;21.27;8.90;;;3.50;99.90;;;;;;5076946;28;20198;-80
2022/12/08 03:36:26;;;;;;;16.17;9.00;;;3.40;99.90;;;;;;5072213;28;20314;-81
2022/12/08 03:38:54;;;;;;;16.73;8.47;;;3.50;99.90;;;;;;5061231;28;20571;-82
2022/12/08 03:41:22;;;;;;;16.53;8.87;;;3.40;99.90;;;;;;5070584;28;20197;-81
2022/12/08 03:43:50;;;;;;;16.57;8.80;;;3.40;99.90;;;;;;5081615;28;20218;-81
2022/12/08 03:46:18;;;;;;;19.43;9.97;;;3.40;99.90;;;;;;5081993;28;20730;-81
2022/12/08 03:48:45;;;;;;;16.17;9.87;;;3.40;99.90;;;;;;5061252;28;20229;-81
2022/12/08 03:51:13;;;;;;;18.60;9.77;;;3.40;99.90;;;;;;5062042;28;20214;-81
2022/12/08 03:53:40;;;;;;;20.67;10.50;;;3.40;99.90;;;;;;5079061;28;20198;-81
2022/12/08 03:56:16;;;;;;;19.53;9.77;;;3.50;99.90;;;;;;5073792;28;20287;-80
2022/12/08 03:58:43;;;;;;;18.27;9.97;;;3.50;99.90;;;;;;5068965;28;20210;-81
2022/12/08 04:01:10;;;;;;;18.93;10.10;;;3.50;99.90;;;;;;5074354;28;20242;-81
2022/12/08 04:03:37;;;;;;;20.20;11.13;;;3.60;99.90;;;;;;5069384;28;20214;-81
2022/12/08 04:06:04;;;;;;;20.53;10.30;;;3.60;99.90;;;;;;5066195;28;20229;-81
2022/12/08 04:08:31;;;;;;;18.03;10.20;;;3.70;99.90;;;;;;5069599;28;20218;-81
2022/12/08 04:10:58;;;;;;;17.97;9.90;;;3.60;99.90;;;;;;5065817;28;20207;-81
2022/12/08 04:13:26;;;;;;;19.50;11.27;;;3.70;99.90;;;;;;5062269;28;20749;-81
2022/12/08 04:15:52;;;;;;;20.50;10.87;;;3.60;99.90;;;;;;5067304;28;20201;-81
2022/12/08 04:18:19;;;;;;;20.27;11.37;;;3.60;99.90;;;;;;5081638;28;20286;-81
2022/12/08 04:20:46;;;;;;;19.30;10.73;;;3.60;99.90;;;;;;5081456;28;20221;-81
2022/12/08 04:23:13;;;;;;;21.63;10.83;;;3.70;99.90;;;;;;5075920;28;20290;-80
2022/12/08 04:25:40;;;;;;;20.73;11.70;;;3.70;99.90;;;;;;5062321;28;20209;-81
2022/12/08 04:28:07;;;;;;;21.23;12.00;;;3.70;99.90;;;;;;5062940;28;20282;-81
2022/12/08 04:30:35;;;;;;;21.43;11.87;;;3.60;99.90;;;;;;5077071;28;20228;-81
2022/12/08 04:33:02;;;;;;;22.77;11.77;;;3.70;99.90;;;;;;5078532;28;20289;-81
2022/12/08 04:35:29;;;;;;;20.70;11.80;;;3.70;99.90;;;;;;5063673;28;20199;-81
2022/12/08 04:37:56;;;;;;;22.00;11.47;;;3.70;99.90;;;;;;5077352;28;20214;-81
2022/12/08 04:40:23;;;;;;;22.73;11.93;;;3.80;99.90;;;;;;5062502;28;20643;-81
2022/12/08 04:42:50;;;;;;;20.13;11.27;;;3.80;99.90;;;;;;5076289;28;20205;-81
2022/12/08 04:45:17;;;;;;;22.27;11.10;;;3.80;99.90;;;;;;5079921;28;20241;-81
2022/12/08 04:47:45;;;;;;;19.93;11.33;;;3.80;99.90;;;;;;5074329;28;20705;-81
2022/12/08 04:50:12;;;;;;;19.33;11.43;;;3.80;99.90;;;;;;5062447;28;20207;-81
2022/12/08 04:52:40;;;;;;;20.83;11.00;;;3.80;99.90;;;;;;5081185;28;20219;-80
2022/12/08 04:55:07;;;;;;;18.03;11.23;;;3.80;99.90;;;;;;5080369;28;20206;-81
2022/12/08 04:57:34;;;;;;;18.93;10.77;;;3.80;99.90;;;;;;5077520;28;20210;-81
2022/12/08 05:00:01;;;;;;;20.80;11.20;;;3.80;99.90;;;;;;5075474;28;20280;-80
2022/12/08 05:02:28;;;;;;;19.53;11.00;;;3.80;99.90;;;;;;5061793;28;20844;-81
2022/12/08 05:04:56;;;;;;;19.90;11.10;;;3.80;99.90;;;;;;5068288;28;20270;-81
2022/12/08 05:07:23;;;;;;;18.50;10.83;;;3.80;99.90;;;;;;5082017;28;20322;-80
2022/12/08 05:09:49;;;;;;;21.07;12.17;;;3.70;99.90;;;;;;5081566;28;20281;-81
2022/12/08 05:12:16;;;;;;;22.63;11.97;;;3.80;99.90;;;;;;5076327;28;20289;-81
2022/12/08 05:14:43;;;;;;;21.03;11.67;;;3.70;99.90;;;;;;5071194;28;20639;-81
2022/12/08 05:17:10;;;;;;;19.93;12.40;;;3.80;99.90;;;;;;5061938;28;20221;-81
2022/12/08 05:19:37;;;;;;;23.00;12.10;;;3.80;99.90;;;;;;5069664;28;20297;-81
2022/12/08 05:22:05;;;;;;;23.83;12.20;;;3.90;99.90;;;;;;5062069;28;20199;-82
2022/12/08 05:24:32;;;;;;;24.80;13.47;;;3.90;99.90;;;;;;5060678;28;20289;-81
2022/12/08 05:26:59;;;;;;;24.77;13.63;;;4.00;99.90;;;;;;5068228;28;20224;-81
2022/12/08 05:29:26;;;;;;;27.33;14.90;;;4.00;99.90;;;;;;5070214;28;20207;-81
2022/12/08 05:31:53;;;;;;;29.30;15.27;;;4.00;99.90;;;;;;5065316;28;20277;-81
2022/12/08 05:34:20;;;;;;;26.50;15.63;;;4.00;99.90;;;;;;5065309;28;20207;-81
2022/12/08 05:36:47;;;;;;;29.03;14.87;;;4.00;99.90;;;;;;5065820;28;20286;-81
2022/12/08 05:39:15;;;;;;;26.93;15.93;;;3.90;99.90;;;;;;5080335;28;20191;-81
2022/12/08 05:41:42;;;;;;;25.43;13.77;;;3.90;99.90;;;;;;5070447;28;20209;-80
2022/12/08 05:44:09;;;;;;;27.07;15.03;;;4.00;99.90;;;;;;5069476;28;20213;-81
2022/12/08 05:46:37;;;;;;;24.33;13.77;;;4.00;99.90;;;;;;5068021;28;20228;-81
2022/12/08 05:49:04;;;;;;;28.77;14.90;;;4.00;99.90;;;;;;5073436;28;20221;-81
2022/12/08 05:51:31;;;;;;;24.47;13.77;;;4.10;99.90;;;;;;5069592;28;20211;-81
2022/12/08 05:53:58;;;;;;;26.63;15.00;;;4.20;99.90;;;;;;5064340;28;20203;-81
2022/12/08 05:56:27;;;;;;;25.17;13.73;;;4.10;99.90;;;;;;5079374;28;20226;-81
2022/12/08 05:58:54;;;;;;;24.73;14.57;;;4.10;99.90;;;;;;5074277;28;20203;-81
2022/12/08 06:01:22;;;;;;;27.73;14.27;;;4.20;99.90;;;;;;5071556;28;20237;-81
2022/12/08 06:03:49;;;;;;;23.77;13.37;;;4.10;99.90;;;;;;5066052;28;20207;-80
2022/12/08 06:06:16;;;;;;;24.37;12.83;;;4.20;99.90;;;;;;5066855;28;20219;-81
2022/12/08 06:08:43;;;;;;;26.07;13.00;;;4.20;99.90;;;;;;5075729;28;20232;-81
2022/12/08 06:11:10;;;;;;;26.50;12.90;;;4.20;99.90;;;;;;5066424;28;20210;-80
2022/12/08 06:13:38;;;;;;;22.40;12.37;;;4.10;99.90;;;;;;5071617;28;20650;-80
2022/12/08 06:16:06;;;;;;;22.87;11.00;;;4.20;99.90;;;;;;5070160;28;20738;-81
2022/12/08 06:18:33;;;;;;;20.00;10.90;;;4.10;99.90;;;;;;5066266;28;20241;-80
2022/12/08 06:21:04;;;;;;;19.93;11.00;;;4.10;99.90;;;;;;5062931;28;20213;-80
2022/12/08 06:23:31;;;;;;;20.97;10.37;;;4.10;99.90;;;;;;5060448;28;20215;-80
2022/12/08 06:26:01;;;;;;;19.33;10.10;;;4.10;99.90;;;;;;5058442;28;20219;-82
2022/12/08 06:28:28;;;;;;;19.10;9.40;;;4.00;99.90;;;;;;5060519;28;20292;-80
2022/12/08 06:30:57;;;;;;;18.60;9.87;;;4.00;99.90;;;;;;5074036;28;20209;-81
2022/12/08 06:33:24;;;;;;;17.27;9.37;;;4.00;99.90;;;;;;5067911;28;20198;-81
2022/12/08 06:35:51;;;;;;;20.03;11.17;;;3.90;99.90;;;;;;5073290;28;20305;-80
2022/12/08 06:38:17;;;;;;;17.77;9.43;;;3.90;99.90;;;;;;5066276;28;20205;-81
2022/12/08 06:40:44;;;;;;;17.77;8.13;;;3.90;99.90;;;;;;5063206;28;20198;-81
2022/12/08 06:43:11;;;;;;;15.23;8.67;;;3.80;99.90;;;;;;5066987;28;20203;-80
2022/12/08 06:45:41;;;;;;;18.43;8.83;;;3.70;99.90;;;;;;5069530;28;20202;-81
2022/12/08 06:48:09;;;;;;;14.97;8.90;;;3.70;99.90;;;;;;5062137;28;20279;-81
2022/12/08 06:50:36;;;;;;;18.20;9.77;;;3.70;99.90;;;;;;5067375;28;20561;-81
2022/12/08 06:53:03;;;;;;;18.83;10.73;;;3.70;99.90;;;;;;5070378;28;20209;-80
2022/12/08 06:55:29;;;;;;;19.40;10.60;;;3.60;99.90;;;;;;5064483;28;20203;-81
2022/12/08 06:57:56;;;;;;;20.47;11.93;;;3.60;99.90;;;;;;5066973;28;20210;-81
2022/12/08 07:00:23;;;;;;;19.57;10.53;;;3.60;99.90;;;;;;5074016;28;20225;-81
2022/12/08 07:02:50;;;;;;;21.57;11.30;;;3.60;99.90;;;;;;5066975;28;20231;-81
2022/12/08 07:05:18;;;;;;;21.17;11.13;;;3.60;99.90;;;;;;5069973;28;20215;-81
2022/12/08 07:07:45;;;;;;;22.47;12.53;;;3.50;99.90;;;;;;5064027;28;20234;-80
2022/12/08 07:10:12;;;;;;;25.53;14.63;;;3.60;99.90;;;;;;5061884;28;20216;-81
2022/12/08 07:12:39;;;;;;;24.43;13.87;;;3.60;99.90;;;;;;5075366;28;20289;-81
2022/12/08 07:15:07;;;;;;;20.97;11.33;;;3.60;99.90;;;;;;5069734;28;20654;-82
2022/12/08 07:17:34;;;;;;;21.07;11.67;;;3.60;99.90;;;;;;5067169;28;20232;-80
2022/12/08 07:20:01;;;;;;;21.30;10.90;;;3.60;99.90;;;;;;5063318;28;20332;-81
2022/12/08 07:22:29;;;;;;;24.73;13.70;;;3.60;99.90;;;;;;5063114;28;20203;-80
2022/12/08 07:24:56;;;;;;;23.87;13.07;;;3.70;99.90;;;;;;5064090;28;20199;-80
2022/12/08 07:27:22;;;;;;;24.50;13.50;;;3.70;99.90;;;;;;5062540;28;20234;-80
2022/12/08 07:29:49;;;;;;;24.40;13.60;;;3.70;99.90;;;;;;5062138;28;20261;-81
2022/12/08 07:32:16;;;;;;;26.20;14.47;;;3.70;99.90;;;;;;5065104;28;20207;-82
2022/12/08 07:34:43;;;;;;;29.47;16.07;;;3.70;99.90;;;;;;5059175;28;20199;-80
2022/12/08 07:37:10;;;;;;;27.77;16.07;;;3.80;99.90;;;;;;5071267;28;20218;-81
2022/12/08 07:39:38;;;;;;;28.13;15.23;;;3.80;99.90;;;;;;5069486;28;20277;-80
2022/12/08 07:42:05;;;;;;;28.33;16.47;;;3.80;99.90;;;;;;5072649;28;20203;-82
2022/12/08 07:44:32;;;;;;;28.97;15.77;;;3.90;99.90;;;;;;5064324;28;20855;-80
2022/12/08 07:46:58;;;;;;;28.10;14.87;;;3.90;99.90;;;;;;5071740;28;20646;-80
2022/12/08 07:49:25;;;;;;;28.97;15.03;;;3.90;99.90;;;;;;5075858;28;20229;-81
2022/12/08 07:51:52;;;;;;;28.77;15.37;;;3.90;99.90;;;;;;5069524;28;20195;-81
2022/12/08 07:54:19;;;;;;;28.47;15.33;;;3.90;99.90;;;;;;5065823;28;20288;-80
2022/12/08 07:56:47;;;;;;;27.93;14.87;;;3.90;99.90;;;;;;5063259;28;20231;-81
2022/12/08 07:59:15;;;;;;;25.63;14.07;;;3.90;99.90;;;;;;5066499;28;20584;-82
2022/12/08 08:01:42;;;;;;;28.33;15.70;;;3.90;99.90;;;;;;5061816;28;20234;-81
2022/12/08 08:04:09;;;;;;;25.13;14.33;;;4.00;99.90;;;;;;5067306;28;20206;-80
2022/12/08 08:06:36;;;;;;;24.87;13.30;;;4.00;99.90;;;;;;5065036;28;20281;-81
2022/12/08 08:09:04;;;;;;;25.40;13.33;;;4.00;99.90;;;;;;5067208;28;20508;-82
2022/12/08 08:11:31;;;;;;;21.73;12.97;;;4.00;99.90;;;;;;5072200;28;20261;-81
2022/12/08 08:14:01;;;;;;;24.43;13.40;;;4.00;99.90;;;;;;5071845;28;20313;-81
2022/12/08 08:16:28;;;;;;;25.40;14.17;;;4.00;99.90;;;;;;5066133;28;20272;-81
2022/12/08 08:18:55;;;;;;;24.53;13.90;;;4.10;99.90;;;;;;5069297;28;20198;-81
2022/12/08 08:21:22;;;;;;;24.47;13.17;;;4.10;99.90;;;;;;5072706;28;20207;-81
2022/12/08 08:23:49;;;;;;;25.17;14.17;;;4.10;99.90;;;;;;5066530;28;20199;-81
2022/12/08 08:26:16;;;;;;;21.20;11.83;;;4.10;99.90;;;;;;5072309;28;20221;-81
2022/12/08 08:28:44;;;;;;;21.20;11.47;;;4.10;99.90;;;;;;5073776;28;20214;-82
2022/12/08 08:31:13;;;;;;;19.30;11.07;;;4.20;99.90;;;;;;5070373;28;20210;-81
2022/12/08 08:33:41;;;;;;;21.57;12.00;;;4.20;99.90;;;;;;5070043;28;20205;-81
2022/12/08 08:36:09;;;;;;;19.97;11.03;;;4.20;99.90;;;;;;5073345;28;20219;-82
2022/12/08 08:38:38;;;;;;;20.37;10.27;;;4.20;99.90;;;;;;5066494;28;20209;-81
2022/12/08 08:41:16;;;;;;;19.10;10.40;;;4.20;99.90;;;;;;5071848;28;20617;-82
2022/12/08 08:43:43;;;;;;;18.00;10.37;;;4.20;99.90;;;;;;5070888;28;20216;-81
2022/12/08 08:46:19;;;;;;;18.37;10.40;;;4.20;99.90;;;;;;5070615;28;20229;-82
2022/12/08 08:48:46;;;;;;;19.23;10.63;;;4.20;99.90;;;;;;5073283;28;20218;-83
2022/12/08 08:51:15;;;;;;;19.30;10.93;;;4.20;99.90;;;;;;5066643;28;20205;-82
2022/12/08 08:53:42;;;;;;;17.10;9.93;;;4.20;99.90;;;;;;5071459;28;20206;-80
2022/12/08 08:56:10;;;;;;;20.30;11.53;;;4.20;99.90;;;;;;5071201;28;20237;-81
2022/12/08 08:58:44;;;;;;;18.93;11.30;;;4.30;99.90;;;;;;5073272;28;20266;-82
2022/12/08 09:01:16;;;;;;;18.53;10.77;;;4.30;99.90;;;;;;5075918;28;20205;-82
2022/12/08 09:03:44;;;;;;;19.40;11.07;;;4.30;99.90;;;;;;5071154;28;20221;-81
2022/12/08 09:06:11;;;;;;;18.67;10.73;;;4.40;99.90;;;;;;5066520;28;20758;-81
2022/12/08 09:08:43;;;;;;;19.10;11.40;;;4.40;99.90;;;;;;5072053;28;20241;-82
2022/12/08 09:11:11;;;;;;;21.13;11.70;;;4.40;99.90;;;;;;5074650;28;20213;-81
2022/12/08 09:13:37;;;;;;;20.27;12.00;;;4.50;99.90;;;;;;5072280;28;20210;-81
2022/12/08 09:16:06;;;;;;;18.43;11.43;;;4.50;99.90;;;;;;5075849;28;20281;-84
2022/12/08 09:18:35;;;;;;;20.77;11.97;;;4.50;99.90;;;;;;5067795;28;20199;-82
2022/12/08 09:21:05;;;;;;;22.53;12.30;;;4.50;99.90;;;;;;5062725;28;20199;-82
2022/12/08 09:23:34;;;;;;;19.70;12.40;;;4.50;99.90;;;;;;5080120;28;20225;-82
2022/12/08 09:26:04;;;;;;;20.83;11.80;;;4.50;99.90;;;;;;5070061;28;20223;-81
2022/12/08 09:28:34;;;;;;;20.63;13.07;;;4.50;99.90;;;;;;5069460;28;20228;-82
2022/12/08 09:31:02;;;;;;;20.07;11.87;;;4.50;99.90;;;;;;5074721;28;20230;-81
2022/12/08 09:33:29;;;;;;;21.07;11.80;;;4.50;99.90;;;;;;5075223;28;20281;-84
2022/12/08 09:36:02;;;;;;;20.27;11.43;;;4.50;99.90;;;;;;5068681;28;20230;-81
2022/12/08 09:38:29;;;;;;;21.70;12.57;;;4.50;99.90;;;;;;5067946;28;20658;-82
2022/12/08 09:40:56;;;;;;;21.13;11.97;;;4.40;99.90;;;;;;5079195;28;20198;-81
2022/12/08 09:43:41;;;;;;;21.07;12.40;;;4.50;99.90;;;;;;5067784;28;20589;-81
2022/12/08 09:46:10;;;;;;;20.50;11.60;;;4.40;99.90;;;;;;5060833;28;20227;-82
2022/12/08 09:48:42;;;;;;;20.87;12.40;;;4.40;99.90;;;;;;5073605;28;20592;-81
2022/12/08 09:51:12;;;;;;;21.27;12.97;;;4.40;99.90;;;;;;5069267;28;20199;-81
2022/12/08 09:53:45;;;;;;;20.23;13.00;;;4.40;99.90;;;;;;5072944;28;20286;-82
2022/12/08 09:56:17;;;;;;;19.60;12.30;;;4.40;99.90;;;;;;5071277;28;20224;-82
2022/12/08 09:58:51;;;;;;;21.73;12.97;;;4.40;99.90;;;;;;5066890;28;20198;-82
2022/12/08 10:01:19;;;;;;;20.30;12.10;;;4.30;99.90;;;;;;5064349;28;20567;-82
2022/12/08 10:03:46;;;;;;;22.40;13.63;;;4.20;99.90;;;;;;5065619;28;20257;-82
2022/12/08 10:06:22;;;;;;;19.27;11.90;;;4.20;99.90;;;;;;5069564;28;20223;-82
2022/12/08 10:08:58;;;;;;;21.97;12.73;;;4.10;99.90;;;;;;5071480;28;20222;-81
2022/12/08 10:11:32;;;;;;;22.50;12.97;;;4.10;99.90;;;;;;5070581;28;20472;-81
2022/12/08 10:14:16;;;;;;;21.53;13.33;;;4.10;99.90;;;;;;5071623;28;20290;-82
2022/12/08 10:16:49;;;;;;;20.50;12.30;;;3.90;99.90;;;;;;5071400;28;20286;-82
2022/12/08 10:19:19;;;;;;;16.50;9.97;;;3.90;99.90;;;;;;5070333;28;20326;-81
2022/12/08 10:21:48;;;;;;;15.27;9.13;;;3.70;99.90;;;;;;5065554;28;20220;-82
2022/12/08 10:24:22;;;;;;;16.63;9.27;;;3.70;99.90;;;;;;5059986;28;20199;-82
2022/12/08 10:26:49;;;;;;;16.07;9.07;;;3.50;99.90;;;;;;5067874;28;20218;-82
2022/12/08 10:29:16;;;;;;;14.97;9.10;;;3.60;99.90;;;;;;5070539;28;20475;-83
2022/12/08 10:31:43;;;;;;;14.73;7.80;;;3.60;99.90;;;;;;5070427;28;20258;-83
2022/12/08 10:34:16;;;;;;;14.00;8.40;;;3.60;99.90;;;;;;5068836;28;20207;-83
2022/12/08 10:36:50;;;;;;;15.63;8.43;;;3.70;99.90;;;;;;5077698;28;20257;-82
2022/12/08 10:39:31;;;;;;;16.20;8.83;;;3.80;99.90;;;;;;5067972;28;20729;-81
2022/12/08 10:42:02;;;;;;;12.27;7.90;;;3.90;99.90;;;;;;5060772;28;20234;-82
2022/12/08 10:44:29;;;;;;;12.93;7.73;;;4.00;99.90;;;;;;5065919;28;20260;-81
2022/12/08 10:46:56;;;;;;;13.77;7.80;;;4.00;99.90;;;;;;5062162;28;20218;-81
2022/12/08 10:49:27;;;;;;;13.37;7.83;;;4.10;99.90;;;;;;5062393;28;20222;-82
2022/12/08 10:51:56;;;;;;;13.80;7.93;;;4.10;99.90;;;;;;5065129;28;20198;-81
2022/12/08 10:54:29;;;;;;;12.93;7.10;;;4.10;99.90;;;;;;5064468;28;20228;-81
2022/12/08 10:56:57;;;;;;;11.53;6.83;;;4.20;99.90;;;;;;5059166;28;20226;-82
2022/12/08 10:59:24;;;;;;;12.23;6.93;;;4.30;99.90;;;;;;5069676;28;20209;-82
2022/12/08 11:01:54;;;;;;;13.77;7.77;;;4.30;99.90;;;;;;5067112;28;20677;-82
2022/12/08 11:04:24;;;;;;;17.63;9.33;;;4.40;99.90;;;;;;5066383;28;20625;-82
2022/12/08 11:06:52;;;;;;;13.97;8.70;;;4.50;99.90;;;;;;5064221;28;20222;-82
2022/12/08 11:09:37;;;;;;;15.93;8.43;;;4.60;99.90;;;;;;5064502;28;20264;-81
2022/12/08 11:12:08;;;;;;;11.70;7.07;;;4.60;99.90;;;;;;5063281;28;20210;-81
2022/12/08 11:14:46;;;;;;;14.50;8.33;;;4.50;99.90;;;;;;5064790;28;20650;-81
2022/12/08 11:17:15;;;;;;;13.07;7.50;;;4.50;99.90;;;;;;5068823;28;20218;-82
2022/12/08 11:19:44;;;;;;;15.67;9.27;;;4.70;99.90;;;;;;5061431;28;20199;-81
2022/12/08 11:22:22;;;;;;;12.90;7.83;;;4.70;99.90;;;;;;5065497;28;20613;-82
2022/12/08 11:24:58;;;;;;;12.50;7.37;;;4.70;99.90;;;;;;5069465;28;20202;-82
2022/12/08 11:27:25;;;;;;;17.07;9.40;;;4.70;99.90;;;;;;5067286;28;20221;-83
2022/12/08 11:29:52;;;;;;;16.60;8.60;;;4.70;99.90;;;;;;5066990;28;20219;-83
2022/12/08 11:32:19;;;;;;;15.77;7.93;;;4.70;99.90;;;;;;5074411;28;20196;-83
2022/12/08 11:34:52;;;;;;;13.50;7.57;;;4.70;99.90;;;;;;5078137;28;20216;-82
2022/12/08 11:37:33;;;;;;;12.60;7.23;;;4.80;99.90;;;;;;5069306;28;20241;-82
2022/12/08 11:40:30;;;;;;;13.00;7.73;;;4.70;99.90;;;;;;5079774;28;20195;-82
2022/12/08 11:43:15;;;;;;;11.73;7.03;;;4.80;99.90;;;;;;5078747;28;20202;-82
2022/12/08 11:45:46;;;;;;;11.33;6.87;;;4.80;99.90;;;;;;5068625;28;20203;-83
2022/12/08 11:48:17;;;;;;;11.87;7.00;;;4.80;99.90;;;;;;5078248;28;20275;-82
2022/12/08 11:50:49;;;;;;;12.60;6.67;;;4.80;99.90;;;;;;5073034;28;20256;-83
2022/12/08 11:53:24;;;;;;;12.57;7.13;;;4.90;99.90;;;;;;5068016;28;20209;-82
2022/12/08 11:55:57;;;;;;;12.17;7.30;;;4.90;99.90;;;;;;5076842;28;20229;-83
2022/12/08 11:58:31;;;;;;;11.70;6.90;;;4.90;99.90;;;;;;5071982;28;20198;-82
2022/12/08 12:00:58;;;;;;;11.13;6.17;;;4.90;99.90;;;;;;5065619;28;20253;-82
2022/12/08 12:03:31;;;;;;;13.47;7.43;;;5.10;99.90;;;;;;5071720;28;20210;-81
2022/12/08 12:06:20;;;;;;;11.60;7.10;;;4.90;99.90;;;;;;5072104;28;20206;-81
2022/12/08 12:09:00;;;;;;;9.77;6.07;;;5.00;99.90;;;;;;5068357;28;20202;-81
2022/12/08 12:14:38;;;;;;;9.33;5.10;;;4.90;99.90;;;;;;5071736;28;20280;-81
2022/12/08 12:17:07;;;;;;;8.50;5.40;;;4.80;99.90;;;;;;5070916;28;20257;-81
2022/12/08 12:19:37;;;;;;;7.30;4.40;;;4.80;99.90;;;;;;5074525;28;20205;-81
2022/12/08 12:22:12;;;;;;;6.83;4.70;;;4.80;99.90;;;;;;5068887;28;20194;-82
2022/12/08 12:24:49;;;;;;;10.03;5.53;;;4.70;99.90;;;;;;5077909;28;20290;-82
2022/12/08 12:27:28;;;;;;;11.80;6.60;;;4.90;99.90;;;;;;5076648;28;20219;-81
2022/12/08 12:29:58;;;;;;;8.27;5.33;;;4.90;99.90;;;;;;5077728;28;20226;-82
2022/12/08 12:32:39;;;;;;;8.20;5.17;;;4.80;99.90;;;;;;5065841;28;20215;-81
2022/12/08 12:35:15;;;;;;;7.20;4.70;;;4.90;99.90;;;;;;5068439;28;20236;-82
2022/12/08 12:37:43;;;;;;;7.67;4.47;;;4.80;99.90;;;;;;5067830;28;20233;-81
2022/12/08 12:40:18;;;;;;;8.37;5.30;;;4.90;99.90;;;;;;5063673;28;20259;-82
2022/12/08 12:43:08;;;;;;;8.03;4.70;;;4.90;99.90;;;;;;5062951;28;20593;-81
2022/12/08 12:45:42;;;;;;;7.67;4.20;;;4.90;99.90;;;;;;5063630;28;20206;-81
2022/12/08 12:48:24;;;;;;;5.60;4.10;;;4.80;99.90;;;;;;5064769;28;20198;-81
2022/12/08 12:50:53;;;;;;;5.67;3.57;;;4.80;99.90;;;;;;5068327;28;20223;-81
2022/12/08 12:53:48;;;;;;;6.00;4.00;;;4.80;99.90;;;;;;5069754;28;20203;-82
2022/12/08 12:56:49;;;;;;;6.63;3.80;;;4.80;99.90;;;;;;5060637;28;20245;-80
2022/12/08 12:59:40;;;;;;;6.37;4.63;;;4.80;99.90;;;;;;5070871;28;20204;-81
2022/12/08 13:02:24;;;;;;;6.23;4.23;;;4.80;99.90;;;;;;5069179;28;20223;-81
2022/12/08 13:04:59;;;;;;;5.67;3.87;;;4.80;99.90;;;;;;5066267;28;20214;-81
2022/12/08 13:07:28;;;;;;;5.77;4.10;;;4.80;99.90;;;;;;5064904;28;20619;-81